Time;durP1;ratioP1;P1;durP2;ratioP2;P2;SDS_P1;SDS_P2;PMS_P1;PMS_P2;Temp;Humidity;BMP_temperature;BMP_pressure;BME280_temperature;BME280_humidity;BME280_pressure;Samples;Min_cycle;Max_cycle;Signal;HPM_P1;HPM_P2
2023/01/16 00:00:59;;;;;;;2.67;1.25;;;5.50;99.90;;;;;;5089134;28;20020;-64
2023/01/16 00:03:24;;;;;;;3.08;1.90;;;5.40;99.90;;;;;;5091767;28;20052;-64
2023/01/16 00:05:50;;;;;;;4.38;2.95;;;5.40;99.90;;;;;;5091905;28;20066;-64
2023/01/16 00:08:15;;;;;;;6.05;2.90;;;5.40;99.90;;;;;;5091381;28;20020;-64
2023/01/16 00:10:42;;;;;;;3.90;3.38;;;5.40;99.90;;;;;;5089243;28;20447;-64
2023/01/16 00:13:12;;;;;;;4.68;3.75;;;5.50;99.90;;;;;;5091710;28;20082;-64
2023/01/16 00:15:38;;;;;;;6.53;4.45;;;5.50;99.90;;;;;;5105387;27;20031;-64
2023/01/16 00:18:04;;;;;;;5.65;4.65;;;5.40;99.90;;;;;;5091685;28;20020;-64
2023/01/16 00:20:29;;;;;;;4.70;4.10;;;5.40;99.90;;;;;;5091538;28;20039;-64
2023/01/16 00:22:55;;;;;;;6.13;4.88;;;5.30;99.90;;;;;;5088841;28;20103;-64
2023/01/16 00:25:20;;;;;;;6.32;5.55;;;5.30;99.90;;;;;;5091298;28;20095;-64
2023/01/16 00:27:46;;;;;;;5.65;4.90;;;5.30;99.90;;;;;;5091037;28;20027;-64
2023/01/16 00:30:12;;;;;;;6.15;5.43;;;5.30;99.90;;;;;;5088606;28;20126;-64
2023/01/16 00:32:37;;;;;;;7.80;5.60;;;5.20;99.90;;;;;;5091431;28;20027;-64
2023/01/16 00:35:04;;;;;;;6.90;5.75;;;5.20;99.90;;;;;;5070453;28;20016;-64
2023/01/16 00:37:29;;;;;;;6.20;5.18;;;5.20;99.90;;;;;;5091161;28;20074;-64
2023/01/16 00:39:54;;;;;;;5.43;4.10;;;5.20;99.90;;;;;;5094914;28;20024;-64
2023/01/16 00:42:20;;;;;;;4.55;3.60;;;5.20;99.90;;;;;;5093632;28;20097;-64
2023/01/16 00:44:45;;;;;;;5.13;3.38;;;5.20;99.90;;;;;;5093594;28;20020;-64
2023/01/16 00:47:11;;;;;;;4.22;2.92;;;5.20;99.90;;;;;;5090328;28;20465;-64
2023/01/16 00:49:37;;;;;;;4.53;3.28;;;5.10;99.90;;;;;;5091504;28;20031;-64
2023/01/16 00:52:03;;;;;;;4.18;3.20;;;5.10;99.90;;;;;;5073185;28;20454;-64
2023/01/16 00:54:28;;;;;;;4.50;3.10;;;5.10;99.90;;;;;;5109265;27;20031;-64
2023/01/16 00:56:54;;;;;;;4.13;3.10;;;5.10;99.90;;;;;;5088035;28;20020;-64
2023/01/16 00:59:19;;;;;;;4.80;3.05;;;5.10;99.90;;;;;;5091096;28;20583;-64
2023/01/16 01:01:45;;;;;;;7.70;4.10;;;5.00;99.90;;;;;;5072517;28;20119;-64
2023/01/16 01:04:12;;;;;;;5.57;3.97;;;5.00;99.90;;;;;;5092287;28;20034;-64
2023/01/16 01:06:38;;;;;;;6.10;4.30;;;5.00;99.90;;;;;;5088930;28;20016;-64
2023/01/16 01:09:03;;;;;;;4.88;3.53;;;5.00;99.90;;;;;;5095422;28;20392;-65
2023/01/16 01:11:29;;;;;;;7.03;4.13;;;4.90;99.90;;;;;;5092932;28;20100;-64
2023/01/16 01:13:54;;;;;;;7.63;4.07;;;5.00;99.90;;;;;;5087962;28;20481;-64
2023/01/16 01:16:20;;;;;;;5.18;3.58;;;4.90;99.90;;;;;;5098838;28;20380;-64
2023/01/16 01:18:45;;;;;;;6.22;3.58;;;4.90;99.90;;;;;;5091699;28;20024;-64
2023/01/16 01:21:11;;;;;;;4.40;3.22;;;4.90;99.90;;;;;;5092860;28;20027;-64
2023/01/16 01:23:36;;;;;;;4.43;2.70;;;4.90;99.90;;;;;;5071851;28;20491;-64
2023/01/16 01:26:10;;;;;;;6.43;2.47;;;5.00;99.90;;;;;;5087493;28;20054;-64
2023/01/16 01:28:36;;;;;;;5.10;1.85;;;5.00;99.90;;;;;;5091653;28;20024;-64
2023/01/16 01:31:07;;;;;;;5.18;2.30;;;4.90;99.90;;;;;;5073348;28;20052;-64
2023/01/16 01:33:33;;;;;;;7.60;1.95;;;4.90;99.90;;;;;;5072013;28;20024;-64
2023/01/16 01:35:59;;;;;;;5.65;2.25;;;4.90;99.90;;;;;;5088524;28;20112;-64
2023/01/16 01:38:25;;;;;;;6.55;1.88;;;4.90;99.90;;;;;;5092695;28;20095;-64
2023/01/16 01:40:50;;;;;;;6.22;1.92;;;4.90;99.90;;;;;;5088049;28;20032;-64
2023/01/16 01:43:19;;;;;;;3.65;1.27;;;4.90;99.90;;;;;;5092133;28;20091;-64
2023/01/16 01:45:52;;;;;;;4.82;1.17;;;4.90;99.90;;;;;;5087111;28;20024;-64
2023/01/16 01:48:24;;;;;;;6.93;1.35;;;4.90;99.90;;;;;;5074840;28;20024;-64
2023/01/16 01:51:06;;;;;;;8.52;2.00;;;4.90;99.90;;;;;;5085233;28;20027;-64
2023/01/16 01:53:45;;;;;;;4.35;1.35;;;4.90;99.90;;;;;;5089538;28;20059;-64
2023/01/16 01:56:18;;;;;;;6.82;1.15;;;4.90;99.90;;;;;;5090240;28;20107;-64
2023/01/16 01:58:48;;;;;;;6.50;2.08;;;4.90;99.90;;;;;;5086974;28;20017;-64
2023/01/16 02:01:13;;;;;;;9.90;1.50;;;4.90;99.90;;;;;;5090018;28;20016;-64
2023/01/16 02:03:42;;;;;;;5.63;1.30;;;4.80;99.90;;;;;;5083418;28;20127;-64
2023/01/16 02:06:15;;;;;;;7.30;1.70;;;4.80;99.90;;;;;;5085182;28;20056;-64
2023/01/16 02:08:44;;;;;;;6.40;1.17;;;4.70;99.90;;;;;;5085141;28;20167;-64
2023/01/16 02:11:27;;;;;;;4.63;1.25;;;4.70;99.90;;;;;;5088368;28;20035;-63
2023/01/16 02:13:58;;;;;;;7.03;1.70;;;4.70;99.90;;;;;;5091894;28;20433;-64
2023/01/16 02:19:18;;;;;;;4.78;1.20;;;4.50;99.90;;;;;;5089490;28;20062;-64
2023/01/16 02:22:11;;;;;;;7.00;1.08;;;4.50;99.90;;;;;;5117059;27;20031;-64
2023/01/16 02:24:51;;;;;;;3.83;1.10;;;4.40;99.90;;;;;;5092349;28;20034;-64
2023/01/16 02:27:44;;;;;;;7.65;1.00;;;4.40;99.90;;;;;;5072463;28;20024;-64
2023/01/16 02:30:34;;;;;;;3.55;1.00;;;4.30;99.90;;;;;;5075549;28;20404;-64
2023/01/16 02:33:19;;;;;;;5.32;0.90;;;4.30;99.90;;;;;;5091093;28;20093;-64
2023/01/16 02:35:58;;;;;;;7.40;1.85;;;4.20;99.90;;;;;;5103967;27;20081;-64
2023/01/16 02:38:36;;;;;;;3.70;0.80;;;4.10;99.90;;;;;;5099170;28;20118;-64
2023/01/16 02:41:28;;;;;;;6.10;1.00;;;4.10;99.90;;;;;;5092928;28;20060;-64
2023/01/16 02:44:28;;;;;;;3.65;1.20;;;4.10;99.90;;;;;;5090619;28;20020;-64
2023/01/16 02:47:29;;;;;;;6.50;1.15;;;4.00;99.90;;;;;;5075233;28;20032;-64
2023/01/16 02:50:32;;;;;;;7.97;1.20;;;4.00;99.90;;;;;;5093780;28;20024;-64
2023/01/16 02:53:12;;;;;;;6.07;0.95;;;3.90;99.90;;;;;;5073106;28;20122;-64
2023/01/16 02:56:13;;;;;;;7.03;1.63;;;3.90;99.90;;;;;;5090163;28;20552;-64
2023/01/16 02:58:47;;;;;;;13.10;1.27;;;3.90;99.90;;;;;;5090270;28;20043;-64
2023/01/16 03:01:13;;;;;;;8.93;1.15;;;3.80;99.90;;;;;;5073861;28;20020;-64
2023/01/16 03:03:48;;;;;;;4.68;1.10;;;3.80;99.90;;;;;;5093143;28;20030;-64
2023/01/16 03:06:36;;;;;;;6.60;1.30;;;3.80;99.90;;;;;;5115966;27;20381;-63
2023/01/16 03:09:08;;;;;;;4.82;0.93;;;3.80;99.90;;;;;;5075487;28;20678;-64
2023/01/16 03:12:03;;;;;;;5.95;1.20;;;3.80;99.90;;;;;;5090694;27;20096;-64
2023/01/16 03:14:44;;;;;;;10.43;1.55;;;3.80;99.90;;;;;;5015419;28;20268;-64
2023/01/16 03:17:30;;;;;;;7.13;1.65;;;3.80;99.90;;;;;;5093566;28;20051;-64
2023/01/16 03:20:14;;;;;;;11.45;1.60;;;3.70;99.90;;;;;;5093414;28;20095;-64
2023/01/16 03:22:40;;;;;;;5.63;0.90;;;3.70;99.90;;;;;;5074121;28;20118;-64
2023/01/16 03:25:34;;;;;;;10.50;1.52;;;3.70;99.90;;;;;;5088120;28;20480;-64
2023/01/16 03:28:21;;;;;;;6.85;1.10;;;3.70;99.90;;;;;;5089351;28;20044;-64
2023/01/16 03:31:05;;;;;;;3.35;1.42;;;3.60;99.90;;;;;;5090092;28;20427;-64
2023/01/16 03:33:58;;;;;;;7.50;1.10;;;3.60;99.90;;;;;;5089942;28;20566;-64
2023/01/16 03:36:42;;;;;;;9.85;1.30;;;3.60;99.90;;;;;;5074677;28;20012;-64
2023/01/16 03:39:10;;;;;;;6.90;1.02;;;3.50;99.90;;;;;;5100137;28;20140;-64
2023/01/16 03:41:39;;;;;;;4.72;1.20;;;3.50;99.90;;;;;;5092703;28;20099;-64
2023/01/16 03:44:10;;;;;;;8.35;1.00;;;3.50;99.90;;;;;;5094890;28;20016;-64
2023/01/16 03:46:49;;;;;;;3.38;1.00;;;3.50;99.90;;;;;;5094170;28;20101;-64
2023/01/16 03:49:19;;;;;;;5.25;0.90;;;3.60;99.90;;;;;;5086830;28;20035;-64
2023/01/16 03:51:52;;;;;;;5.03;0.80;;;3.50;99.90;;;;;;5091804;28;20016;-64
2023/01/16 03:54:36;;;;;;;6.65;1.23;;;3.50;99.90;;;;;;5074072;28;20473;-64
2023/01/16 03:57:11;;;;;;;3.92;1.17;;;3.50;99.90;;;;;;5092586;28;20028;-64
2023/01/16 03:59:40;;;;;;;5.43;1.05;;;3.50;99.90;;;;;;5073707;28;20130;-64
2023/01/16 04:02:19;;;;;;;7.10;1.48;;;3.50;99.90;;;;;;5091595;28;20020;-64
2023/01/16 04:04:49;;;;;;;3.35;1.05;;;3.50;99.90;;;;;;5093889;28;20658;-64
2023/01/16 04:07:32;;;;;;;;;;;3.40;99.90;;;;;;5090313;28;20032;-64
2023/01/16 04:10:00;;;;;;;10.38;1.63;;;3.40;99.90;;;;;;5090684;28;19914;-64
2023/01/16 04:12:32;;;;;;;7.85;1.00;;;3.40;99.90;;;;;;5091194;28;20574;-64
2023/01/16 04:15:01;;;;;;;3.47;1.08;;;3.40;99.90;;;;;;5091480;28;20512;-64
2023/01/16 04:17:28;;;;;;;4.17;1.17;;;3.40;99.90;;;;;;5088759;28;20016;-64
2023/01/16 04:19:54;;;;;;;6.22;1.30;;;3.40;99.90;;;;;;5104843;28;20759;-64
2023/01/16 04:22:25;;;;;;;4.35;1.00;;;3.50;99.90;;;;;;5086690;28;20092;-64
2023/01/16 04:24:53;;;;;;;6.25;1.10;;;3.50;99.90;;;;;;5070263;28;20039;-64
2023/01/16 04:27:19;;;;;;;4.50;1.27;;;3.50;99.90;;;;;;5088950;28;20071;-64
2023/01/16 04:29:45;;;;;;;6.97;0.77;;;3.50;99.90;;;;;;5070176;28;20478;-64
2023/01/16 04:32:10;;;;;;;5.35;1.20;;;3.50;99.90;;;;;;5091552;28;20020;-63
2023/01/16 04:34:36;;;;;;;7.90;1.10;;;3.50;99.90;;;;;;5088803;27;20410;-64
2023/01/16 04:37:02;;;;;;;7.68;1.30;;;3.60;99.90;;;;;;5094618;28;20028;-64
2023/01/16 04:39:27;;;;;;;8.63;1.63;;;3.60;99.90;;;;;;5092812;28;20076;-64
2023/01/16 04:41:53;;;;;;;3.78;0.98;;;3.60;99.90;;;;;;5092615;28;20036;-63
2023/01/16 04:44:18;;;;;;;9.23;1.48;;;3.70;99.90;;;;;;5095168;28;20477;-64
2023/01/16 04:46:44;;;;;;;4.78;0.95;;;3.70;99.90;;;;;;5091723;28;20047;-64
2023/01/16 04:49:10;;;;;;;9.10;1.70;;;3.70;99.90;;;;;;5091842;28;20048;-64
2023/01/16 04:51:37;;;;;;;7.55;1.70;;;3.70;99.90;;;;;;5088432;28;20020;-64
2023/01/16 04:54:09;;;;;;;11.27;1.95;;;3.70;99.90;;;;;;5088215;28;20024;-64
2023/01/16 04:56:35;;;;;;;3.25;1.10;;;3.80;99.90;;;;;;5090994;28;20032;-64
2023/01/16 04:59:01;;;;;;;8.25;1.40;;;3.80;99.90;;;;;;5077285;28;20024;-64
2023/01/16 05:01:34;;;;;;;3.92;1.10;;;3.70;99.90;;;;;;5090778;28;20086;-64
2023/01/16 05:04:03;;;;;;;7.25;1.85;;;3.80;99.90;;;;;;5072377;28;20117;-64
2023/01/16 05:06:29;;;;;;;2.42;0.98;;;3.80;99.90;;;;;;5072929;28;20503;-64
2023/01/16 05:08:54;;;;;;;6.63;1.50;;;3.80;99.90;;;;;;5091104;28;20519;-64
2023/01/16 05:11:20;;;;;;;6.35;1.70;;;3.80;99.90;;;;;;5087877;28;20681;-64
2023/01/16 05:13:45;;;;;;;10.48;1.73;;;3.80;99.90;;;;;;5093997;28;20020;-64
2023/01/16 05:16:11;;;;;;;10.07;1.45;;;3.80;99.90;;;;;;5090162;28;20035;-64
2023/01/16 05:18:36;;;;;;;6.55;1.30;;;3.80;99.90;;;;;;5087943;28;20098;-64
2023/01/16 05:21:03;;;;;;;9.82;1.38;;;3.90;99.90;;;;;;5088053;28;20032;-64
2023/01/16 05:23:28;;;;;;;12.02;1.92;;;3.90;99.90;;;;;;5083053;28;20269;-64
2023/01/16 05:25:54;;;;;;;5.05;1.13;;;3.90;99.90;;;;;;5069403;28;20032;-64
2023/01/16 05:28:20;;;;;;;9.75;1.48;;;4.00;99.90;;;;;;5071451;28;20036;-64
2023/01/16 05:30:48;;;;;;;4.70;1.10;;;4.00;99.90;;;;;;5096136;28;20020;-64
2023/01/16 05:33:13;;;;;;;8.35;1.33;;;4.10;99.90;;;;;;5093307;28;20024;-64
2023/01/16 05:35:39;;;;;;;5.78;1.17;;;4.10;99.90;;;;;;5087618;28;20477;-64
2023/01/16 05:38:04;;;;;;;10.68;1.55;;;4.10;99.90;;;;;;5095480;28;20028;-64
2023/01/16 05:40:30;;;;;;;5.30;1.02;;;4.20;99.90;;;;;;5109517;27;20440;-64
2023/01/16 05:42:55;;;;;;;9.75;1.23;;;4.20;99.90;;;;;;5087813;28;20028;-64
2023/01/16 05:45:21;;;;;;;9.10;1.85;;;4.20;99.90;;;;;;5089836;28;20050;-64
2023/01/16 05:47:47;;;;;;;6.15;1.02;;;4.20;99.90;;;;;;5097321;28;20466;-64
2023/01/16 05:50:12;;;;;;;3.92;1.00;;;4.20;99.90;;;;;;5108392;28;20469;-64
2023/01/16 05:52:38;;;;;;;4.30;0.90;;;4.30;99.90;;;;;;5093500;28;20452;-65
2023/01/16 05:55:04;;;;;;;8.23;1.10;;;4.30;99.90;;;;;;5071741;28;20030;-64
2023/01/16 05:57:29;;;;;;;3.45;0.73;;;4.30;99.90;;;;;;5094487;28;20509;-64
2023/01/16 05:59:55;;;;;;;8.15;0.98;;;4.30;99.90;;;;;;5094333;28;20028;-64
2023/01/16 06:02:21;;;;;;;4.85;0.90;;;4.30;99.90;;;;;;5091633;28;20032;-65
2023/01/16 06:04:47;;;;;;;4.75;0.98;;;4.40;99.90;;;;;;5097719;28;20031;-65
2023/01/16 06:07:13;;;;;;;4.93;0.60;;;4.30;99.90;;;;;;5075294;28;20020;-64
2023/01/16 06:09:39;;;;;;;5.72;0.90;;;4.40;99.90;;;;;;5091321;28;20526;-64
2023/01/16 06:12:07;;;;;;;3.03;0.65;;;4.40;99.90;;;;;;5091102;28;20527;-64
2023/01/16 06:14:35;;;;;;;6.18;0.98;;;4.40;99.90;;;;;;5091631;28;20024;-64
2023/01/16 06:17:01;;;;;;;4.60;0.70;;;4.50;99.90;;;;;;5093051;28;20035;-64
2023/01/16 06:19:26;;;;;;;2.55;0.60;;;4.50;99.90;;;;;;5094006;28;20020;-64
2023/01/16 06:21:52;;;;;;;2.85;0.55;;;4.50;99.90;;;;;;5093069;28;20385;-64
2023/01/16 06:24:17;;;;;;;2.85;0.65;;;4.50;99.90;;;;;;5079436;28;20485;-64
2023/01/16 06:26:43;;;;;;;2.90;0.98;;;4.50;99.90;;;;;;5107482;28;20027;-64
2023/01/16 06:29:09;;;;;;;4.00;0.70;;;4.50;99.90;;;;;;5095096;28;20036;-64
2023/01/16 06:31:35;;;;;;;5.10;1.30;;;4.50;99.90;;;;;;5096328;28;20031;-64
2023/01/16 06:34:01;;;;;;;3.03;0.90;;;4.50;99.90;;;;;;5106001;28;20028;-64
2023/01/16 06:36:27;;;;;;;3.13;0.90;;;4.50;99.90;;;;;;5078542;28;20020;-64
2023/01/16 06:38:52;;;;;;;4.53;0.75;;;4.50;99.90;;;;;;5105404;28;20363;-64
2023/01/16 06:41:18;;;;;;;4.85;1.38;;;4.60;99.90;;;;;;5094248;28;20032;-64
2023/01/16 06:43:43;;;;;;;4.78;0.80;;;4.60;99.90;;;;;;5100285;28;20015;-64
2023/01/16 06:46:09;;;;;;;4.07;0.82;;;4.50;99.90;;;;;;5092760;27;20231;-64
2023/01/16 06:48:34;;;;;;;4.68;0.65;;;4.60;99.90;;;;;;5104595;28;20035;-64
2023/01/16 06:51:00;;;;;;;3.67;0.93;;;4.60;99.90;;;;;;5087249;28;20054;-64
2023/01/16 06:53:26;;;;;;;2.30;0.50;;;4.60;99.90;;;;;;5083562;28;20024;-64
2023/01/16 06:55:52;;;;;;;2.72;0.70;;;4.60;99.90;;;;;;5108690;28;20100;-64
2023/01/16 06:58:17;;;;;;;2.88;0.50;;;4.60;99.90;;;;;;5109024;28;20092;-64
2023/01/16 07:00:43;;;;;;;10.70;1.70;;;4.60;99.90;;;;;;5100168;28;20111;-64
2023/01/16 07:03:09;;;;;;;4.57;0.75;;;4.50;99.90;;;;;;5077964;28;20024;-64
2023/01/16 07:05:34;;;;;;;4.07;2.15;;;4.50;99.90;;;;;;5100040;28;20378;-64
2023/01/16 07:08:00;;;;;;;2.40;0.90;;;4.50;99.90;;;;;;5107459;28;20110;-64
2023/01/16 07:10:26;;;;;;;5.65;0.90;;;4.50;99.90;;;;;;5093683;28;20158;-64
2023/01/16 07:12:52;;;;;;;5.50;0.85;;;4.50;99.90;;;;;;5102209;28;20385;-64
2023/01/16 07:23:44;;;;;;;4.68;0.98;;;4.50;99.90;;;;;;5109244;28;20038;-64
2023/01/16 07:26:11;;;;;;;4.47;0.90;;;4.50;99.90;;;;;;5110612;27;20020;-64
2023/01/16 07:28:37;;;;;;;11.15;2.75;;;4.50;99.90;;;;;;5084789;28;20028;-64
2023/01/16 07:31:05;;;;;;;4.40;0.65;;;4.50;99.90;;;;;;5098950;28;20107;-64
2023/01/16 07:33:30;;;;;;;5.63;0.63;;;4.50;99.90;;;;;;5093715;28;20503;-64
2023/01/16 07:35:56;;;;;;;4.80;0.60;;;4.50;99.90;;;;;;5093851;28;20055;-64
2023/01/16 07:38:22;;;;;;;3.45;0.73;;;4.60;99.90;;;;;;5102371;28;20047;-64
2023/01/16 07:40:47;;;;;;;2.88;0.85;;;4.60;99.90;;;;;;5080183;28;20066;-64
2023/01/16 07:43:13;;;;;;;4.10;0.73;;;4.60;99.90;;;;;;5095228;28;20051;-64
2023/01/16 07:45:38;;;;;;;5.47;0.98;;;4.60;99.90;;;;;;5109197;28;20499;-64
2023/01/16 07:48:04;;;;;;;5.78;0.80;;;4.60;99.90;;;;;;5107432;28;20592;-64
2023/01/16 07:50:29;;;;;;;2.45;0.75;;;4.70;99.90;;;;;;5107975;28;20045;-64
2023/01/16 07:52:55;;;;;;;2.83;0.73;;;4.70;99.90;;;;;;5097639;28;20032;-64
2023/01/16 07:55:21;;;;;;;5.10;0.77;;;4.70;99.90;;;;;;5080701;28;20080;-64
2023/01/16 07:57:46;;;;;;;3.90;0.63;;;4.70;99.90;;;;;;5104312;28;20027;-64
2023/01/16 08:00:13;;;;;;;2.63;0.60;;;4.70;99.90;;;;;;5096346;28;20028;-65
2023/01/16 08:02:40;;;;;;;3.47;0.70;;;4.70;99.90;;;;;;5108185;28;20027;-64
2023/01/16 08:05:06;;;;;;;1.98;0.55;;;4.70;99.90;;;;;;5112726;28;20023;-64
2023/01/16 08:07:31;;;;;;;2.45;0.60;;;4.80;99.90;;;;;;5104654;28;20111;-64
2023/01/16 08:09:57;;;;;;;1.70;0.65;;;4.70;99.90;;;;;;5105700;28;20495;-64
2023/01/16 08:12:23;;;;;;;2.40;0.70;;;4.80;99.90;;;;;;5082553;28;20557;-65
2023/01/16 08:14:48;;;;;;;5.93;0.70;;;4.80;99.90;;;;;;5092063;28;20020;-64
2023/01/16 08:17:14;;;;;;;5.40;0.70;;;4.80;99.90;;;;;;5117999;27;20016;-64
2023/01/16 08:19:40;;;;;;;3.42;0.60;;;4.80;99.90;;;;;;5110430;28;20020;-64
2023/01/16 08:22:05;;;;;;;4.30;0.93;;;4.80;99.90;;;;;;5109496;28;20070;-65
2023/01/16 08:24:31;;;;;;;4.75;0.95;;;4.80;99.90;;;;;;5109915;28;20028;-64
2023/01/16 08:26:57;;;;;;;4.53;0.80;;;4.70;99.90;;;;;;5107934;28;20116;-65
2023/01/16 08:29:23;;;;;;;3.35;1.08;;;4.80;99.90;;;;;;5116399;27;20027;-64
2023/01/16 08:31:49;;;;;;;4.03;0.55;;;4.80;99.90;;;;;;5099376;28;20098;-65
2023/01/16 08:34:14;;;;;;;3.42;0.55;;;4.80;99.90;;;;;;5111429;27;20108;-65
2023/01/16 08:36:40;;;;;;;3.05;0.75;;;4.80;99.90;;;;;;5095538;28;20020;-65
2023/01/16 08:39:07;;;;;;;3.92;0.85;;;4.80;99.90;;;;;;5106196;28;20065;-65
2023/01/16 08:52:41;;;;;;;3.30;0.90;;;4.90;99.90;;;;;;5092197;28;20058;-65
2023/01/16 08:55:07;;;;;;;6.70;1.10;;;4.90;99.90;;;;;;5104877;28;20458;-65
2023/01/16 08:57:33;;;;;;;2.85;0.90;;;4.90;99.90;;;;;;5086055;28;20055;-65
2023/01/16 08:59:59;;;;;;;4.50;1.00;;;4.90;99.90;;;;;;5072992;28;20069;-65
2023/01/16 09:02:26;;;;;;;4.32;1.00;;;4.90;99.90;;;;;;5091648;28;20422;-65
2023/01/16 09:04:54;;;;;;;5.18;0.98;;;5.00;99.90;;;;;;5091613;28;20481;-65
2023/01/16 09:07:19;;;;;;;2.72;0.90;;;5.00;99.90;;;;;;5073162;28;20035;-65
2023/01/16 09:09:45;;;;;;;2.40;0.93;;;5.00;99.90;;;;;;5091340;28;20023;-65
2023/01/16 09:14:57;;;;;;;6.72;1.00;;;5.00;99.90;;;;;;5103706;28;20549;-65
2023/01/16 09:17:25;;;;;;;7.95;1.10;;;5.00;99.90;;;;;;5093228;28;20028;-65
2023/01/16 09:19:51;;;;;;;2.83;0.80;;;5.00;99.90;;;;;;5092164;28;20032;-65
2023/01/16 09:22:17;;;;;;;2.20;0.80;;;5.00;99.90;;;;;;5091502;28;20020;-65
2023/01/16 09:24:43;;;;;;;3.53;0.77;;;5.00;99.90;;;;;;5073849;28;20118;-65
2023/01/16 09:27:08;;;;;;;2.20;0.80;;;5.10;99.90;;;;;;5092056;28;20478;-65
2023/01/16 09:29:34;;;;;;;2.42;1.10;;;5.10;99.90;;;;;;5091514;28;20413;-65
2023/01/16 09:32:01;;;;;;;5.25;0.98;;;5.10;99.90;;;;;;5091742;28;20085;-65
2023/01/16 09:34:27;;;;;;;1.40;0.60;;;5.00;99.90;;;;;;5073215;28;20024;-65
2023/01/16 09:36:52;;;;;;;3.10;1.25;;;5.00;99.90;;;;;;5091807;28;20035;-65
2023/01/16 09:39:18;;;;;;;3.80;0.68;;;5.00;99.90;;;;;;5091369;28;20016;-65
2023/01/16 09:44:50;;;;;;;8.48;1.58;;;5.10;99.90;;;;;;5104752;28;20039;-65
2023/01/16 09:47:16;;;;;;;2.58;0.88;;;5.00;99.90;;;;;;5091495;28;20028;-65
2023/01/16 09:50:09;;;;;;;4.78;1.33;;;5.00;99.90;;;;;;5076586;28;20020;-65
2023/01/16 09:58:36;;;;;;;2.00;0.60;;;5.00;99.90;;;;;;5100184;28;20038;-65
2023/01/16 10:01:03;;;;;;;2.88;0.60;;;5.00;99.90;;;;;;5094956;28;20056;-65
2023/01/16 10:03:29;;;;;;;2.15;0.70;;;5.00;99.90;;;;;;5073340;28;20024;-66
2023/01/16 10:06:12;;;;;;;2.63;0.60;;;4.90;99.90;;;;;;5090909;28;20492;-65
2023/01/16 10:08:41;;;;;;;2.63;0.50;;;4.90;99.90;;;;;;5073142;28;20031;-65
2023/01/16 10:11:18;;;;;;;3.80;0.40;;;4.90;99.90;;;;;;5091214;28;20040;-65
2023/01/16 10:14:00;;;;;;;3.08;0.60;;;4.80;99.90;;;;;;5091316;28;20265;-65
2023/01/16 10:16:51;;;;;;;3.25;0.52;;;4.80;99.90;;;;;;5100128;28;20070;-65
2023/01/16 10:19:48;;;;;;;0.90;0.40;;;4.80;99.90;;;;;;5110669;28;20043;-65
2023/01/16 10:22:44;;;;;;;1.85;0.63;;;4.80;99.90;;;;;;5104848;28;20043;-65
2023/01/16 10:25:19;;;;;;;0.88;0.40;;;4.80;99.90;;;;;;5104915;28;20036;-65
2023/01/16 10:28:03;;;;;;;2.67;0.52;;;4.80;99.90;;;;;;5108906;28;20039;-65
2023/01/16 10:30:35;;;;;;;1.27;0.40;;;4.80;99.90;;;;;;5098552;28;20015;-65
2023/01/16 10:33:25;;;;;;;1.50;0.40;;;4.80;99.90;;;;;;5088629;28;20028;-65
2023/01/16 10:35:52;;;;;;;1.30;0.40;;;4.80;99.90;;;;;;5104279;28;20031;-65
2023/01/16 10:38:44;;;;;;;1.63;0.50;;;4.80;99.90;;;;;;5091240;28;20050;-65
2023/01/16 10:49:56;;;;;;;5.15;0.68;;;4.90;99.90;;;;;;5109495;28;20077;-66
2023/01/16 10:52:24;;;;;;;2.97;0.50;;;5.00;99.90;;;;;;5117689;27;20047;-65
2023/01/16 10:54:51;;;;;;;3.00;0.70;;;5.00;99.90;;;;;;5111587;28;20024;-66
2023/01/16 10:57:19;;;;;;;3.28;0.57;;;5.00;99.90;;;;;;5112005;28;20043;-66
2023/01/16 10:59:46;;;;;;;1.58;0.70;;;5.00;99.90;;;;;;5108403;28;20445;-66
2023/01/16 11:02:31;;;;;;;3.05;0.70;;;5.10;99.90;;;;;;5113412;28;20027;-65
2023/01/16 11:04:57;;;;;;;0.98;0.50;;;5.10;99.90;;;;;;5110916;28;20020;-65
2023/01/16 11:07:26;;;;;;;1.85;0.70;;;5.20;99.90;;;;;;5116885;27;20122;-65
2023/01/16 11:09:51;;;;;;;1.88;0.50;;;5.20;99.90;;;;;;5109106;28;20093;-65
2023/01/16 11:18:30;;;;;;;2.20;0.77;;;5.40;99.90;;;;;;5097341;27;20034;-66
2023/01/16 11:20:58;;;;;;;2.50;0.80;;;5.40;99.90;;;;;;5108858;28;20054;-66
2023/01/16 11:23:37;;;;;;;2.10;0.70;;;5.50;99.90;;;;;;5105744;28;20040;-66
2023/01/16 11:26:04;;;;;;;2.28;0.68;;;5.50;99.90;;;;;;5104737;28;20674;-66
2023/01/16 11:28:31;;;;;;;1.30;0.60;;;5.50;99.90;;;;;;5087515;27;20023;-65
2023/01/16 11:31:25;;;;;;;2.97;0.63;;;5.50;99.90;;;;;;5115643;27;20032;-65
2023/01/16 11:33:57;;;;;;;2.45;0.60;;;5.60;99.90;;;;;;5096575;28;20071;-66
2023/01/16 11:36:24;;;;;;;0.90;0.43;;;5.60;99.90;;;;;;5097147;28;20019;-65
2023/01/16 11:38:50;;;;;;;5.40;0.50;;;5.60;99.90;;;;;;5108314;28;20012;-65
2023/01/16 11:41:28;;;;;;;3.15;0.70;;;5.60;99.90;;;;;;5098122;28;20525;-66
2023/01/16 11:46:58;;;;;;;4.55;0.90;;;5.70;99.90;;;;;;5109898;28;20053;-66
2023/01/16 11:49:39;;;;;;;2.03;0.50;;;5.70;99.90;;;;;;5111711;28;20500;-66
2023/01/16 11:52:05;;;;;;;5.13;0.50;;;5.70;99.90;;;;;;5108299;28;20380;-66
2023/01/16 11:54:34;;;;;;;2.60;0.50;;;5.80;99.90;;;;;;5110648;28;20461;-66
2023/01/16 11:57:17;;;;;;;2.50;0.50;;;5.70;99.90;;;;;;5112423;28;20488;-66
2023/01/16 12:00:09;;;;;;;2.00;0.60;;;5.80;99.90;;;;;;5090468;28;20096;-65
2023/01/16 12:02:54;;;;;;;1.40;0.50;;;5.80;99.90;;;;;;5115129;27;20027;-66
2023/01/16 12:08:12;;;;;;;2.05;0.43;;;5.80;99.90;;;;;;5102997;28;20111;-65
2023/01/16 12:11:08;;;;;;;3.85;0.50;;;5.80;99.90;;;;;;5103401;28;20126;-65
2023/01/16 12:14:18;;;;;;;1.58;0.55;;;5.80;99.90;;;;;;5099997;28;20042;-66
2023/01/16 12:16:51;;;;;;;1.50;0.40;;;5.80;99.90;;;;;;5099079;28;20015;-66
2023/01/16 12:19:44;;;;;;;2.72;0.50;;;5.90;99.90;;;;;;5102936;28;20028;-65
2023/01/16 12:22:34;;;;;;;2.20;0.30;;;5.90;99.90;;;;;;5108737;28;20024;-66
2023/01/16 12:25:17;;;;;;;;;;;5.90;99.90;;;;;;5106938;28;20015;-65
2023/01/16 12:27:48;;;;;;;2.65;0.40;;;5.90;99.90;;;;;;5109155;28;20425;-65
2023/01/16 12:30:33;;;;;;;1.48;0.40;;;5.90;99.90;;;;;;5107393;28;20055;-65
2023/01/16 12:33:11;;;;;;;0.68;0.25;;;6.00;99.90;;;;;;5110009;28;20095;-65
2023/01/16 12:36:01;;;;;;;2.45;0.40;;;6.00;99.90;;;;;;5109310;28;20095;-66
2023/01/16 12:38:32;;;;;;;1.05;0.30;;;6.10;99.90;;;;;;5109182;28;20016;-65
2023/01/16 12:44:28;;;;;;;1.42;0.70;;;6.30;99.90;;;;;;5110232;28;20042;-65
2023/01/16 12:47:14;;;;;;;1.88;0.70;;;6.30;99.90;;;;;;5104977;28;20225;-65
2023/01/16 12:49:52;;;;;;;1.73;0.45;;;6.30;99.90;;;;;;5108097;28;20495;-65
2023/01/16 12:52:20;;;;;;;1.58;0.40;;;6.30;99.90;;;;;;5107866;28;20032;-65
2023/01/16 12:55:02;;;;;;;1.25;0.40;;;6.30;99.90;;;;;;5105013;28;20476;-65
2023/01/16 12:57:46;;;;;;;1.40;0.38;;;6.30;99.90;;;;;;5087286;28;20020;-65
2023/01/16 13:00:19;;;;;;;1.38;0.30;;;6.20;99.90;;;;;;5086484;28;20027;-65
2023/01/16 13:02:50;;;;;;;1.30;0.50;;;6.20;99.90;;;;;;5102777;28;20024;-65
2023/01/16 13:05:25;;;;;;;1.55;0.40;;;6.10;99.90;;;;;;5110255;28;20035;-65
2023/01/16 13:08:11;;;;;;;1.15;0.32;;;6.20;99.90;;;;;;5107293;28;20030;-65
2023/01/16 13:13:35;;;;;;;1.58;0.40;;;6.20;99.90;;;;;;5105256;28;20108;-65
2023/01/16 13:16:15;;;;;;;0.60;0.30;;;6.20;99.90;;;;;;5110673;28;20015;-65
2023/01/16 13:18:58;;;;;;;0.93;0.40;;;6.20;99.90;;;;;;5108109;28;20021;-65
2023/01/16 13:21:29;;;;;;;1.30;0.40;;;6.20;99.90;;;;;;5104431;28;20091;-65
2023/01/16 13:24:03;;;;;;;1.38;0.40;;;6.10;99.90;;;;;;5108073;28;20430;-65
2023/01/16 13:26:30;;;;;;;3.72;0.47;;;6.20;99.90;;;;;;5087515;28;20015;-65
2023/01/16 13:29:26;;;;;;;2.42;0.40;;;6.10;99.90;;;;;;5107672;28;20026;-65
2023/01/16 13:31:57;;;;;;;1.75;0.40;;;6.10;99.90;;;;;;5074106;28;20485;-65
2023/01/16 13:34:29;;;;;;;1.30;0.40;;;6.10;99.90;;;;;;5103638;28;20031;-65
2023/01/16 13:37:19;;;;;;;1.25;0.50;;;6.00;99.90;;;;;;5108607;28;20024;-65
2023/01/16 13:39:50;;;;;;;1.52;0.40;;;6.00;99.90;;;;;;5117401;27;20027;-65
2023/01/16 13:42:18;;;;;;;0.57;0.30;;;6.00;99.90;;;;;;5105693;28;20068;-65
2023/01/16 13:47:39;;;;;;;1.33;0.50;;;6.00;99.90;;;;;;5105662;28;20400;-65
2023/01/16 13:50:24;;;;;;;1.08;0.32;;;5.90;99.90;;;;;;5107083;28;20016;-65
2023/01/16 13:52:53;;;;;;;0.52;0.30;;;5.80;99.90;;;;;;5104256;28;20042;-65
2023/01/16 13:55:35;;;;;;;1.98;0.73;;;5.80;99.90;;;;;;5104959;28;20020;-65
2023/01/16 13:58:09;;;;;;;1.50;0.50;;;5.80;99.90;;;;;;5107290;28;20012;-65
2023/01/16 14:00:37;;;;;;;1.00;0.30;;;5.70;99.90;;;;;;5088556;28;20027;-65
2023/01/16 14:03:17;;;;;;;3.63;0.95;;;5.70;99.90;;;;;;5085332;28;20069;-65
2023/01/16 14:05:49;;;;;;;0.93;0.40;;;5.70;99.90;;;;;;5105220;28;20019;-65
2023/01/16 14:11:23;;;;;;;0.60;0.30;;;5.70;99.90;;;;;;5108503;28;20047;-65
2023/01/16 14:13:49;;;;;;;2.10;0.40;;;5.70;99.90;;;;;;5104376;28;20008;-65
2023/01/16 14:16:31;;;;;;;2.15;0.50;;;5.60;99.90;;;;;;5112217;28;20512;-65
2023/01/16 14:19:02;;;;;;;1.52;0.40;;;5.60;99.90;;;;;;5111932;28;20043;-65
2023/01/16 14:21:37;;;;;;;1.38;0.40;;;5.70;99.90;;;;;;5112627;28;20020;-66
2023/01/16 14:24:06;;;;;;;2.70;0.40;;;5.70;99.90;;;;;;5108867;28;20102;-66
2023/01/16 14:26:39;;;;;;;1.33;0.40;;;5.70;99.90;;;;;;5111993;28;20028;-66